Time;durP1;ratioP1;P1;durP2;ratioP2;P2;SDS_P1;SDS_P2;PMS_P1;PMS_P2;Temp;Humidity;BMP_temperature;BMP_pressure;BME280_temperature;BME280_humidity;BME280_pressure;Samples;Min_cycle;Max_cycle;Signal;HPM_P1;HPM_P2
2021/10/27 00:00:31;;;;;;;48.78;8.35;;;;;;;13.66;88.31;101999.72;5114624;28;20111;-47
2021/10/27 00:02:56;;;;;;;44.83;7.35;;;;;;;13.69;88.15;101997.53;5114303;28;20027;-47
2021/10/27 00:05:22;;;;;;;38.92;6.75;;;;;;;13.72;88.20;102001.75;5095991;28;20075;-49
2021/10/27 00:07:48;;;;;;;43.00;8.10;;;;;;;13.77;87.94;102002.03;5114483;28;20438;-47
2021/10/27 00:10:13;;;;;;;53.60;7.47;;;;;;;13.75;88.35;102004.94;5114601;28;20110;-48
2021/10/27 00:12:39;;;;;;;35.45;6.93;;;;;;;13.75;88.18;102009.50;5096165;28;20032;-47
2021/10/27 00:15:07;;;;;;;51.70;6.82;;;;;;;13.74;88.13;102002.41;5114434;28;20028;-48
2021/10/27 00:17:33;;;;;;;41.65;7.47;;;;;;;13.75;88.25;102010.34;5113998;28;20093;-47
2021/10/27 00:19:58;;;;;;;40.92;7.03;;;;;;;13.75;88.25;102015.75;5114184;28;20383;-48
2021/10/27 00:22:24;;;;;;;52.30;7.75;;;;;;;13.77;88.11;102016.44;5113996;28;20023;-48
2021/10/27 00:24:49;;;;;;;45.88;8.07;;;;;;;13.75;88.17;102007.66;5114215;28;20035;-46
2021/10/27 00:27:15;;;;;;;49.15;7.45;;;;;;;13.75;88.49;101999.53;5113883;28;20031;-47
2021/10/27 00:29:41;;;;;;;44.45;7.72;;;;;;;13.74;88.44;102000.53;5113871;28;20131;-48
2021/10/27 00:32:07;;;;;;;51.28;9.02;;;;;;;13.74;88.53;102003.22;5114075;28;20047;-49
2021/10/27 00:34:33;;;;;;;50.92;7.95;;;;;;;13.75;88.31;102001.41;5114095;28;20028;-47
2021/10/27 00:36:58;;;;;;;40.65;7.25;;;;;;;13.74;88.66;102005.09;5095539;28;20023;-47
2021/10/27 00:39:23;;;;;;;44.85;8.23;;;;;;;13.74;88.47;102005.09;5114011;28;20486;-46
2021/10/27 00:41:49;;;;;;;47.90;8.70;;;;;;;13.68;88.80;102006.66;5113560;28;20019;-45
2021/10/27 00:44:25;;;;;;;47.97;9.60;;;;;;;13.67;88.90;102013.09;5113914;28;20201;-47
2021/10/27 00:47:04;;;;;;;39.20;9.90;;;;;;;13.64;88.90;102013.44;5113564;28;20402;-47
2021/10/27 00:49:32;;;;;;;37.92;9.93;;;;;;;13.61;89.30;102011.91;5113724;28;20489;-46
2021/10/27 00:51:59;;;;;;;60.13;12.13;;;;;;;13.61;89.45;102014.63;5113034;28;20078;-49
2021/10/27 00:54:25;;;;;;;50.25;11.70;;;;;;;13.57;89.49;102009.72;5113128;28;20046;-47
2021/10/27 00:56:56;;;;;;;56.10;11.63;;;;;;;13.58;89.67;102014.09;5113257;28;20032;-47
2021/10/27 00:59:22;;;;;;;52.10;11.48;;;;;;;13.57;89.64;102007.88;5113650;28;20020;-46
2021/10/27 01:01:49;;;;;;;59.75;11.00;;;;;;;13.51;89.63;102003.16;5113362;28;20055;-47
2021/10/27 01:04:15;;;;;;;52.80;10.25;;;;;;;13.50;89.92;102011.44;5113433;28;20486;-48
2021/10/27 01:06:41;;;;;;;51.25;10.40;;;;;;;13.46;89.98;102010.09;5113607;28;20040;-50
2021/10/27 01:09:07;;;;;;;53.00;10.85;;;;;;;13.46;90.23;102012.81;5095413;28;20019;-46
2021/10/27 01:11:32;;;;;;;41.47;9.73;;;;;;;13.44;90.13;102012.97;5112901;28;20019;-48
2021/10/27 01:13:57;;;;;;;56.70;10.57;;;;;;;13.46;90.10;102020.91;5094787;28;20028;-46
2021/10/27 01:16:23;;;;;;;55.28;8.88;;;;;;;13.46;90.19;102024.47;5113416;28;20489;-47
2021/10/27 01:18:53;;;;;;;45.53;8.48;;;;;;;13.47;90.10;102023.44;5113292;28;20531;-46
2021/10/27 01:21:21;;;;;;;50.63;8.52;;;;;;;13.46;90.13;102016.34;5113662;28;20026;-47
2021/10/27 01:23:47;;;;;;;68.68;9.50;;;;;;;13.47;90.19;102031.53;5112930;28;20459;-47
2021/10/27 01:26:13;;;;;;;34.25;8.95;;;;;;;13.48;90.21;102035.09;5113214;28;20065;-47
2021/10/27 01:28:43;;;;;;;44.17;10.15;;;;;;;13.48;90.35;102032.38;5113524;28;20034;-48
2021/10/27 01:31:13;;;;;;;53.97;11.13;;;;;;;13.45;90.39;102030.88;5113416;28;20085;-49
2021/10/27 01:33:41;;;;;;;46.53;9.65;;;;;;;13.48;90.20;102018.88;5095279;28;20091;-47
2021/10/27 01:36:10;;;;;;;45.03;9.00;;;;;;;13.47;90.18;102028.00;5113305;28;20055;-46
2021/10/27 01:38:37;;;;;;;48.80;9.38;;;;;;;13.48;89.84;102008.03;5113471;28;20020;-47
2021/10/27 01:41:03;;;;;;;35.58;7.78;;;;;;;13.47;89.57;102011.78;5061340;28;20089;-48
2021/10/27 01:43:28;;;;;;;48.20;7.32;;;;;;;13.44;89.55;102012.97;5077684;28;20474;-48
2021/10/27 01:45:54;;;;;;;37.70;6.70;;;;;;;13.43;89.63;102016.69;5057823;28;20062;-46
2021/10/27 01:48:22;;;;;;;45.25;7.88;;;;;;;13.42;89.41;102015.00;5091113;28;20090;-48
2021/10/27 01:50:47;;;;;;;47.97;7.68;;;;;;;13.42;89.37;102022.25;5075433;28;20059;-47
2021/10/27 01:53:15;;;;;;;34.55;6.82;;;;;;;13.43;89.41;102014.00;5106315;28;20054;-50
2021/10/27 01:55:41;;;;;;;27.98;6.40;;;;;;;13.43;88.90;102003.19;5094711;28;20047;-48
2021/10/27 01:58:07;;;;;;;30.35;6.05;;;;;;;13.46;89.06;102010.09;5095063;28;20028;-48
2021/10/27 02:00:33;;;;;;;34.72;6.25;;;;;;;13.44;88.90;102010.25;5094984;28;20028;-47
2021/10/27 02:02:58;;;;;;;30.88;6.43;;;;;;;13.44;88.98;101995.91;5094379;28;20038;-50
2021/10/27 02:05:24;;;;;;;40.33;6.40;;;;;;;13.44;88.96;102001.31;5116388;28;20077;-50
2021/10/27 02:07:49;;;;;;;31.65;5.80;;;;;;;13.41;89.05;102002.50;5117045;28;20027;-50
2021/10/27 02:10:14;;;;;;;33.72;5.95;;;;;;;13.42;88.77;102003.34;5116592;28;20053;-47
2021/10/27 02:12:41;;;;;;;30.25;6.50;;;;;;;13.42;88.99;102009.59;5116831;28;20032;-48
2021/10/27 02:15:08;;;;;;;29.50;5.95;;;;;;;13.42;89.18;101995.22;5116858;28;20035;-46
2021/10/27 02:17:33;;;;;;;37.67;7.28;;;;;;;13.37;89.47;101995.72;5117006;28;20028;-47
2021/10/27 02:19:59;;;;;;;29.70;6.63;;;;;;;13.32;89.62;101992.69;5116678;28;20046;-48
2021/10/27 02:22:25;;;;;;;30.92;6.40;;;;;;;13.30;89.65;101990.19;5116459;28;20027;-47
2021/10/27 02:24:51;;;;;;;31.52;6.38;;;;;;;13.32;89.26;102000.81;5117091;28;20031;-48
2021/10/27 02:27:16;;;;;;;36.13;5.75;;;;;;;13.37;89.31;101985.75;5095910;28;20032;-49
2021/10/27 02:29:42;;;;;;;32.13;5.22;;;;;;;13.38;88.75;101995.56;5106185;28;20036;-47
2021/10/27 02:32:07;;;;;;;31.80;5.15;;;;;;;13.38;88.67;101982.06;5116066;28;20046;-45
2021/10/27 02:34:33;;;;;;;39.03;6.35;;;;;;;13.40;88.55;101981.88;5116198;28;20149;-50
2021/10/27 02:36:59;;;;;;;35.13;5.35;;;;;;;13.39;88.42;101989.13;5116389;28;20024;-46
2021/10/27 02:39:25;;;;;;;32.75;6.43;;;;;;;13.41;88.42;102001.66;5116201;28;20466;-49
2021/10/27 02:41:51;;;;;;;29.42;5.50;;;;;;;13.43;88.25;102005.00;5116223;28;20020;-47
2021/10/27 02:44:16;;;;;;;39.83;6.85;;;;;;;13.41;88.32;101999.78;5097922;28;20106;-47
2021/10/27 02:46:42;;;;;;;36.05;7.50;;;;;;;13.40;88.76;102003.50;5115710;28;20037;-48
2021/10/27 02:49:08;;;;;;;37.50;6.15;;;;;;;13.38;88.99;102003.69;5115741;28;20097;-47
2021/10/27 02:51:33;;;;;;;27.45;6.68;;;;;;;13.36;88.97;101999.47;5115840;28;20023;-50
2021/10/27 02:53:59;;;;;;;41.17;7.97;;;;;;;13.34;89.47;101999.63;5115864;28;20435;-49
2021/10/27 02:56:24;;;;;;;33.13;6.65;;;;;;;13.33;89.37;102000.66;5115442;28;20027;-50
2021/10/27 02:58:49;;;;;;;30.23;6.72;;;;;;;13.31;89.66;101997.28;5115790;28;20058;-47
2021/10/27 03:01:15;;;;;;;42.47;7.47;;;;;;;13.28;89.70;102008.44;5115989;28;20021;-47
2021/10/27 03:03:40;;;;;;;36.28;7.65;;;;;;;13.26;89.56;101999.63;5097549;28;20031;-46
2021/10/27 03:06:06;;;;;;;31.23;7.20;;;;;;;13.26;89.52;101998.78;5097539;28;20035;-49
2021/10/27 03:08:31;;;;;;;32.05;8.20;;;;;;;13.25;89.46;101995.22;5097237;28;20019;-50
2021/10/27 03:10:56;;;;;;;44.45;8.60;;;;;;;13.25;89.34;101997.94;5115703;28;20108;-49
2021/10/27 03:13:22;;;;;;;39.03;8.82;;;;;;;13.29;89.16;101993.88;5115302;28;20036;-46
2021/10/27 03:15:49;;;;;;;36.08;7.75;;;;;;;13.30;89.00;101997.47;5114873;28;20107;-47
2021/10/27 03:18:14;;;;;;;45.90;8.00;;;;;;;13.29;88.66;101999.28;5115677;28;20036;-47
2021/10/27 03:20:39;;;;;;;37.03;7.05;;;;;;;13.32;88.85;102004.38;5115559;28;20038;-47
2021/10/27 03:23:05;;;;;;;38.03;7.95;;;;;;;13.32;88.61;101998.97;5115086;28;20027;-46
2021/10/27 03:25:30;;;;;;;35.35;8.68;;;;;;;13.34;88.81;102012.31;5080106;28;20427;-50
2021/10/27 03:27:56;;;;;;;32.25;8.05;;;;;;;13.32;88.66;102001.69;5080141;28;20027;-47
2021/10/27 03:30:21;;;;;;;51.70;9.57;;;;;;;13.34;88.76;101994.22;5096696;28;20024;-46
2021/10/27 03:32:47;;;;;;;37.47;8.23;;;;;;;13.34;88.58;101994.22;5071682;28;20032;-47
2021/10/27 03:35:12;;;;;;;40.70;7.97;;;;;;;13.36;88.58;101999.47;5094824;28;20058;-46
2021/10/27 03:37:37;;;;;;;32.35;8.30;;;;;;;13.35;88.64;102001.34;5094989;28;20032;-46
2021/10/27 03:40:05;;;;;;;36.83;8.80;;;;;;;13.35;88.44;102004.03;5094757;28;20035;-46
2021/10/27 03:42:30;;;;;;;47.03;8.50;;;;;;;13.38;88.84;102002.84;5100552;28;20026;-48
2021/10/27 03:44:56;;;;;;;43.85;9.38;;;;;;;13.37;89.05;102004.69;5114906;28;20461;-46
2021/10/27 03:47:21;;;;;;;38.65;9.18;;;;;;;13.36;89.24;102013.81;5114805;28;20043;-48
2021/10/27 03:49:48;;;;;;;45.38;9.85;;;;;;;13.34;89.60;101996.91;5114936;28;20050;-47
2021/10/27 03:52:14;;;;;;;35.00;9.00;;;;;;;13.32;89.72;102009.78;5114375;28;20023;-47
2021/10/27 03:54:40;;;;;;;49.50;10.88;;;;;;;13.30;90.21;101998.28;5114668;28;20028;-48
2021/10/27 03:57:05;;;;;;;40.10;10.18;;;;;;;13.29;90.34;102003.88;5113804;28;20061;-50
2021/10/27 03:59:31;;;;;;;35.22;9.10;;;;;;;13.24;90.44;102007.03;5115142;28;20416;-47
2021/10/27 04:01:56;;;;;;;33.70;9.05;;;;;;;13.24;90.25;102001.63;5113873;28;20079;-47
2021/10/27 04:04:21;;;;;;;37.25;9.82;;;;;;;13.24;90.02;102003.50;5114292;28;20055;-47
2021/10/27 04:06:47;;;;;;;34.30;7.22;;;;;;;13.24;89.67;102003.50;5114503;28;20031;-51
2021/10/27 04:09:13;;;;;;;43.45;9.35;;;;;;;13.21;89.71;101996.56;5114437;28;20359;-48
2021/10/27 04:11:38;;;;;;;39.00;8.45;;;;;;;13.23;89.70;101993.72;5114162;28;20110;-48
2021/10/27 04:14:05;;;;;;;49.10;9.10;;;;;;;13.20;89.67;102000.31;5114332;28;20540;-48
2021/10/27 04:16:30;;;;;;;35.83;7.68;;;;;;;13.20;89.32;102005.72;5113998;28;20099;-49
2021/10/27 04:18:55;;;;;;;36.15;8.13;;;;;;;13.23;89.11;101999.97;5114377;28;20114;-48
2021/10/27 04:21:21;;;;;;;32.25;7.53;;;;;;;13.23;88.99;102001.81;5114122;28;20020;-48
2021/10/27 04:23:46;;;;;;;40.10;8.90;;;;;;;13.20;88.83;102000.31;5113863;28;20031;-49
2021/10/27 04:26:11;;;;;;;40.35;7.20;;;;;;;13.22;88.20;102006.38;5113518;28;20030;-48
2021/10/27 04:28:37;;;;;;;29.27;6.53;;;;;;;13.22;88.46;101998.28;5112848;28;20034;-48
2021/10/27 04:31:02;;;;;;;25.83;6.45;;;;;;;13.20;88.06;101994.91;5087468;28;20106;-48
2021/10/27 04:33:28;;;;;;;34.88;6.65;;;;;;;13.22;87.93;102003.69;5091776;28;20028;-50
2021/10/27 04:35:53;;;;;;;27.05;6.50;;;;;;;13.22;87.76;101995.56;5112892;28;20468;-47
2021/10/27 04:38:22;;;;;;;26.48;6.55;;;;;;;13.20;87.51;102003.00;5112423;28;20076;-47
2021/10/27 04:40:48;;;;;;;27.45;6.22;;;;;;;13.19;87.59;102004.00;5105847;28;20054;-49
2021/10/27 04:43:14;;;;;;;36.90;6.85;;;;;;;13.18;87.45;102007.72;5108932;28;20049;-47
2021/10/27 04:45:39;;;;;;;28.60;6.90;;;;;;;13.21;87.50;102012.78;5110296;28;20031;-48
2021/10/27 04:48:07;;;;;;;40.05;7.57;;;;;;;13.21;87.59;102007.38;5113412;28;20071;-47
2021/10/27 04:50:32;;;;;;;21.25;7.18;;;;;;;13.18;87.67;102007.72;5113689;28;20031;-48
2021/10/27 04:52:58;;;;;;;25.10;7.47;;;;;;;13.19;87.63;102014.81;5113877;28;20024;-46
2021/10/27 04:55:23;;;;;;;28.50;7.65;;;;;;;13.12;87.77;102006.56;5095020;28;20019;-47
2021/10/27 04:57:48;;;;;;;31.63;8.15;;;;;;;13.08;87.90;102009.75;5112782;28;20178;-47
2021/10/27 05:00:14;;;;;;;22.98;7.57;;;;;;;13.06;88.25;102009.09;5113492;28;20023;-49
2021/10/27 05:02:40;;;;;;;35.25;9.15;;;;;;;13.04;88.09;102016.53;5088826;28;20019;-49
2021/10/27 05:05:06;;;;;;;36.50;8.52;;;;;;;13.03;88.28;102006.72;5113580;28;20165;-48
2021/10/27 05:07:32;;;;;;;31.10;8.20;;;;;;;13.07;87.96;102010.78;5108323;28;20031;-47
2021/10/27 05:09:57;;;;;;;32.92;7.47;;;;;;;13.05;87.65;102020.91;5109327;28;20024;-49
2021/10/27 05:12:23;;;;;;;31.40;8.30;;;;;;;13.04;87.63;102000.31;5111613;28;20106;-47
2021/10/27 05:14:48;;;;;;;24.08;8.45;;;;;;;13.06;87.58;102009.94;5101241;28;20028;-47
2021/10/27 05:17:14;;;;;;;35.90;8.77;;;;;;;13.07;87.58;102005.38;5093422;28;20032;-48
2021/10/27 05:19:40;;;;;;;28.85;8.68;;;;;;;13.07;87.60;102016.19;5112757;28;20027;-47
2021/10/27 05:22:07;;;;;;;21.33;7.63;;;;;;;13.08;87.76;102004.34;5112625;28;20024;-46
2021/10/27 05:24:33;;;;;;;37.03;9.20;;;;;;;13.07;87.35;102008.94;5111821;28;20028;-47
2021/10/27 05:26:59;;;;;;;30.85;8.43;;;;;;;13.06;87.65;101992.88;5102291;28;20031;-46
2021/10/27 05:29:24;;;;;;;30.10;8.13;;;;;;;13.05;87.28;102002.84;5111815;28;20016;-41
2021/10/27 05:31:50;;;;;;;39.08;8.60;;;;;;;13.04;87.48;102000.31;5097083;28;20027;-46
2021/10/27 05:34:15;;;;;;;29.13;8.48;;;;;;;13.07;87.49;102002.69;5112553;28;20020;-45
2021/10/27 05:36:41;;;;;;;28.75;8.25;;;;;;;13.05;87.12;102002.00;5091707;28;20050;-45
2021/10/27 05:39:07;;;;;;;33.47;8.82;;;;;;;13.06;87.16;102003.69;5112284;27;20032;-44
2021/10/27 05:41:32;;;;;;;26.17;7.32;;;;;;;13.05;87.28;101997.44;5112920;28;20028;-44
2021/10/27 05:43:58;;;;;;;23.75;7.40;;;;;;;13.08;86.73;101998.94;5113097;28;20500;-45
2021/10/27 05:46:24;;;;;;;20.92;6.95;;;;;;;13.10;86.59;102007.75;5112975;28;20024;-44
2021/10/27 05:48:59;;;;;;;34.08;7.82;;;;;;;13.12;86.29;102011.97;5112813;28;20559;-44
2021/10/27 05:51:40;;;;;;;28.15;7.35;;;;;;;13.14;86.32;102009.09;5112894;28;20075;-44
2021/10/27 05:56:49;;;;;;;24.88;6.30;;;;;;;13.16;86.05;102009.75;5112887;28;20591;-46
2021/10/27 05:59:15;;;;;;;24.92;7.63;;;;;;;13.16;86.10;102015.16;5077482;28;20106;-44
2021/10/27 06:01:40;;;;;;;29.50;7.13;;;;;;;13.17;85.98;102009.59;5112645;28;20192;-46
2021/10/27 06:04:05;;;;;;;22.27;6.72;;;;;;;13.18;85.80;102007.72;5112706;28;20114;-47
2021/10/27 06:06:31;;;;;;;23.42;6.30;;;;;;;13.22;85.66;102008.22;5112804;28;20043;-46
2021/10/27 06:08:59;;;;;;;25.20;7.13;;;;;;;13.24;85.41;102006.19;5112469;28;20118;-45
2021/10/27 06:11:24;;;;;;;23.05;6.38;;;;;;;13.27;85.18;102016.69;5095116;28;20103;-44
2021/10/27 06:13:50;;;;;;;22.08;6.55;;;;;;;13.28;85.02;102023.81;5093879;28;20477;-45
2021/10/27 06:16:15;;;;;;;33.90;6.53;;;;;;;13.28;84.89;102019.25;5110864;28;20514;-46
2021/10/27 06:18:42;;;;;;;33.25;7.05;;;;;;;13.25;85.28;102016.03;5111492;28;20421;-48
2021/10/27 06:21:09;;;;;;;39.15;7.88;;;;;;;13.25;85.28;102018.72;5112584;28;20027;-47
2021/10/27 06:23:35;;;;;;;27.23;7.22;;;;;;;13.24;85.49;102015.16;5112432;28;20455;-46
2021/10/27 06:26:00;;;;;;;39.22;7.20;;;;;;;13.25;85.75;102022.25;5112156;28;20020;-46
2021/10/27 06:28:29;;;;;;;25.50;7.40;;;;;;;13.22;85.64;102029.84;5112164;28;20024;-45
2021/10/27 06:31:01;;;;;;;26.40;8.75;;;;;;;13.22;85.82;102033.44;5112098;28;20522;-50
2021/10/27 06:36:53;;;;;;;25.77;8.13;;;;;;;13.23;86.00;102043.22;5112759;28;20035;-49
2021/10/27 06:39:08;;;;;;;30.48;9.50;;;;;;;13.21;86.17;102044.41;5097668;28;20047;-47
2021/10/27 06:47:01;;;;;;;33.55;9.40;;;;;;;13.13;86.58;102053.34;5100864;28;20547;-46
2021/10/27 06:49:27;;;;;;;31.52;9.23;;;;;;;13.14;86.48;102060.47;5111886;28;20035;-46
2021/10/27 06:51:53;;;;;;;22.05;8.32;;;;;;;13.12;86.48;102068.72;5114536;28;20469;-45
2021/10/27 06:54:18;;;;;;;23.23;8.80;;;;;;;13.16;86.24;102061.13;5115517;28;20035;-45
2021/10/27 06:56:44;;;;;;;29.48;9.40;;;;;;;13.15;86.48;102067.53;5097528;28;20027;-46
2021/10/27 07:04:53;;;;;;;37.70;10.82;;;;;;;13.10;86.37;102069.91;5098952;28;20432;-46
2021/10/27 07:18:05;;;;;;;29.90;10.38;;;;;;;13.07;86.32;102075.66;5091901;28;20108;-46
2021/10/27 07:20:30;;;;;;;25.90;10.82;;;;;;;13.01;86.40;102082.59;5096234;28;20478;-46
2021/10/27 07:23:00;;;;;;;31.83;9.60;;;;;;;12.99;86.58;102067.53;5110402;28;20114;-46
2021/10/27 07:25:33;;;;;;;36.78;10.48;;;;;;;13.01;86.60;102070.94;5095004;28;20390;-46
2021/10/27 07:27:58;;;;;;;36.03;10.27;;;;;;;13.01;86.42;102074.47;5097869;28;20031;-46
2021/10/27 07:30:24;;;;;;;27.08;9.25;;;;;;;12.99;86.52;102072.94;5115412;28;20517;-45
2021/10/27 07:32:54;;;;;;;39.33;10.05;;;;;;;13.02;86.42;102064.50;5115432;28;20390;-48
2021/10/27 07:35:29;;;;;;;38.28;10.57;;;;;;;13.03;86.54;102085.94;5109990;28;20391;-45
2021/10/27 07:40:43;;;;;;;30.95;9.25;;;;;;;13.03;86.22;102083.22;5112502;28;20596;-45
2021/10/27 07:43:27;;;;;;;28.10;9.77;;;;;;;13.03;86.29;102080.53;5109924;28;20043;-45
2021/10/27 07:45:53;;;;;;;32.25;9.85;;;;;;;13.10;86.06;102080.72;5098128;28;20371;-49
2021/10/27 07:48:19;;;;;;;28.67;9.43;;;;;;;13.08;86.18;102083.56;5113944;28;20127;-46
2021/10/27 07:50:44;;;;;;;27.60;9.30;;;;;;;13.09;85.83;102079.03;5107927;28;20445;-46
2021/10/27 07:55:39;;;;;;;25.77;8.45;;;;;;;13.16;85.74;102085.44;5063563;28;20403;-46
2021/10/27 07:58:05;;;;;;;26.27;8.95;;;;;;;13.14;85.56;102098.31;5043003;28;20480;-44
2021/10/27 08:00:31;;;;;;;34.30;9.40;;;;;;;13.14;85.69;102087.50;5041888;28;20036;-46
2021/10/27 08:03:01;;;;;;;32.40;9.52;;;;;;;13.15;85.37;102094.56;5045406;28;20018;-45
2021/10/27 08:05:29;;;;;;;29.55;7.80;;;;;;;13.17;85.02;102088.00;5040843;28;20495;-45
2021/10/27 08:07:54;;;;;;;27.23;8.48;;;;;;;13.21;84.81;102093.91;5029843;28;20029;-45
2021/10/27 08:10:20;;;;;;;33.78;7.85;;;;;;;13.24;84.67;102093.56;5044107;28;20557;-44
2021/10/27 08:12:46;;;;;;;26.35;7.65;;;;;;;13.23;84.81;102088.34;5044693;28;20029;-44
2021/10/27 08:15:13;;;;;;;28.75;8.02;;;;;;;13.27;84.38;102090.56;5057806;28;20033;-46
2021/10/27 08:17:40;;;;;;;25.95;7.60;;;;;;;13.30;84.47;102092.94;5069567;28;20554;-43
2021/10/27 08:20:07;;;;;;;26.35;6.70;;;;;;;13.36;84.22;102089.53;5050572;28;20029;-46
2021/10/27 08:22:33;;;;;;;28.60;7.13;;;;;;;13.42;83.81;102085.31;5048661;28;20029;-43
2021/10/27 08:25:03;;;;;;;24.00;6.50;;;;;;;13.44;83.71;102098.66;5044795;28;20116;-45
2021/10/27 08:27:32;;;;;;;25.95;6.45;;;;;;;13.44;83.59;102096.81;5035736;28;20492;-47
2021/10/27 08:30:03;;;;;;;26.08;6.25;;;;;;;13.47;83.44;102101.88;5034793;28;20108;-48
2021/10/27 08:34:54;;;;;;;25.98;6.78;;;;;;;13.47;83.34;102098.31;5039912;28;20029;-48
2021/10/27 08:37:19;;;;;;;18.35;6.07;;;;;;;13.52;83.00;102098.66;5034727;28;20052;-46
2021/10/27 08:39:45;;;;;;;19.83;6.15;;;;;;;13.56;82.96;102108.09;5043159;28;20029;-48
2021/10/27 08:42:12;;;;;;;17.10;6.03;;;;;;;13.57;82.74;102099.00;5030895;28;20026;-45
2021/10/27 08:44:40;;;;;;;27.50;6.37;;;;;;;13.55;82.59;102106.44;5046251;28;20087;-45
2021/10/27 08:47:06;;;;;;;19.17;6.32;;;;;;;13.55;82.59;102101.84;5039111;28;20022;-47
2021/10/27 08:49:32;;;;;;;31.20;6.70;;;;;;;13.57;82.90;102109.81;5037933;28;20515;-45
2021/10/27 08:51:59;;;;;;;32.55;6.50;;;;;;;13.57;82.67;102117.94;5036910;28;20018;-48
2021/10/27 08:54:26;;;;;;;19.95;6.43;;;;;;;13.59;82.58;102118.59;5044678;28;20099;-46
2021/10/27 08:56:55;;;;;;;24.35;7.38;;;;;;;13.59;82.72;102121.31;5010712;28;20041;-47
2021/10/27 08:59:58;;;;;;;19.10;6.45;;;;;;;13.60;82.41;102118.41;5032547;28;20477;-45
2021/10/27 09:05:10;;;;;;;26.33;6.45;;;;;;;13.74;81.94;102116.88;5026200;28;20052;-47
2021/10/27 09:08:05;;;;;;;24.77;6.78;;;;;;;13.74;82.10;102116.88;5014703;28;20204;-45
2021/10/27 10:06:10;;;;;;;19.88;7.93;;;;;;;13.82;80.45;102125.00;5034626;28;20096;-48
2021/10/27 10:08:35;;;;;;;22.00;8.38;;;;;;;13.84;80.42;102138.34;5032260;28;20040;-47
2021/10/27 10:11:00;;;;;;;21.60;7.80;;;;;;;13.87;80.25;102134.44;5034003;28;20536;-49
2021/10/27 10:13:26;;;;;;;24.50;8.13;;;;;;;13.90;80.29;102150.34;5032901;28;20060;-47
2021/10/27 10:15:51;;;;;;;23.50;7.60;;;;;;;13.97;79.94;102148.63;5031532;28;20029;-46
2021/10/27 10:18:23;;;;;;;23.08;7.93;;;;;;;13.94;80.08;102149.00;5032437;28;20029;-46
2021/10/27 10:20:51;;;;;;;18.88;8.32;;;;;;;14.00;79.84;102148.28;5032282;28;20469;-46
2021/10/27 10:23:21;;;;;;;28.70;8.27;;;;;;;13.96;79.61;102146.97;5028024;28;20123;-44
2021/10/27 10:25:55;;;;;;;20.58;8.05;;;;;;;13.95;79.58;102151.50;5031963;28;20049;-44
2021/10/27 10:28:29;;;;;;;21.50;7.35;;;;;;;14.01;79.24;102160.81;5033759;28;20040;-46
2021/10/27 10:31:02;;;;;;;22.65;7.40;;;;;;;13.96;79.21;102166.75;5015642;28;20068;-47
2021/10/27 10:33:41;;;;;;;24.17;8.20;;;;;;;14.00;79.28;102161.81;5031382;28;20038;-49
2021/10/27 10:41:58;;;;;;;21.40;7.30;;;;;;;14.00;79.18;102159.13;5029966;28;20129;-46
2021/10/27 11:37:35;;;;;;;36.03;14.60;;;;;;;13.86;80.40;102138.19;5012754;28;20065;-47
2021/10/27 11:45:22;;;;;;;25.02;14.13;;;;;;;13.87;80.83;102132.59;5029145;28;20048;-47
2021/10/27 11:47:49;;;;;;;23.90;14.35;;;;;;;13.80;80.63;102121.63;5030367;28;20029;-48
2021/10/27 11:50:17;;;;;;;33.45;15.00;;;;;;;13.76;80.49;102120.25;5021881;28;20435;-47
2021/10/27 11:52:45;;;;;;;37.70;15.13;;;;;;;13.82;80.64;102118.72;5014320;28;20489;-47
2021/10/27 11:55:13;;;;;;;38.42;16.75;;;;;;;13.91;80.47;102119.56;5028865;28;20045;-49
2021/10/27 11:57:40;;;;;;;33.75;14.48;;;;;;;13.96;80.22;102122.59;5015553;28;20045;-48
2021/10/27 12:00:07;;;;;;;36.42;15.70;;;;;;;13.94;80.06;102102.97;5016799;28;20021;-47
2021/10/27 12:02:51;;;;;;;36.47;15.25;;;;;;;14.07;79.99;102105.16;5026750;28;20154;-47
2021/10/27 12:05:28;;;;;;;36.55;16.75;;;;;;;14.03;80.01;102110.03;5028715;28;20123;-46
2021/10/27 12:13:38;;;;;;;39.97;17.35;;;;;;;13.81;80.47;102098.94;5015744;28;20095;-48
2021/10/27 12:16:28;;;;;;;44.92;17.02;;;;;;;13.92;80.49;102096.88;5025271;28;20029;-46
2021/10/27 12:19:00;;;;;;;41.08;16.95;;;;;;;13.93;79.96;102104.84;5027699;28;20042;-47
2021/10/27 12:21:27;;;;;;;31.58;18.02;;;;;;;13.92;79.82;102102.31;5012735;28;20129;-47
2021/10/27 12:23:53;;;;;;;34.58;16.27;;;;;;;14.04;79.78;102100.91;5016550;28;20033;-47
2021/10/27 12:26:19;;;;;;;35.55;17.42;;;;;;;13.99;79.46;102100.59;5020687;28;20025;-48
2021/10/27 12:28:46;;;;;;;43.13;18.35;;;;;;;13.96;79.22;102093.66;5027197;28;20029;-45
2021/10/27 12:31:16;;;;;;;37.05;17.95;;;;;;;14.08;79.29;102094.13;5032045;28;20065;-46
2021/10/27 12:33:42;;;;;;;33.53;17.88;;;;;;;14.10;79.41;102085.84;5026376;28;20056;-49
2021/10/27 12:36:18;;;;;;;35.90;17.80;;;;;;;14.10;78.99;102078.56;5013204;28;20461;-48
2021/10/27 12:39:30;;;;;;;35.92;18.40;;;;;;;14.12;78.90;102081.94;5021540;28;20029;-48
2021/10/27 12:42:11;;;;;;;36.28;17.55;;;;;;;14.15;79.08;102076.16;5033938;28;20208;-46
2021/10/27 12:45:04;;;;;;;39.20;16.88;;;;;;;14.23;78.41;102092.38;5033662;28;20032;-47
2021/10/27 12:47:31;;;;;;;33.78;17.83;;;;;;;14.20;78.35;102079.19;5029002;28;20064;-46
2021/10/27 12:50:13;;;;;;;33.83;16.30;;;;;;;14.29;77.89;102082.69;5028075;28;20025;-49
2021/10/27 12:52:45;;;;;;;33.50;16.20;;;;;;;14.27;77.69;102074.78;5027593;28;20047;-49
2021/10/27 12:55:15;;;;;;;30.63;16.27;;;;;;;14.35;77.54;102086.56;5020400;28;20104;-47
2021/10/27 12:57:53;;;;;;;32.83;16.45;;;;;;;14.32;78.20;102060.69;5026668;28;20037;-47
2021/10/27 13:00:45;;;;;;;36.47;15.98;;;;;;;14.52;77.58;102060.25;5033448;28;20033;-45
2021/10/27 13:04:04;;;;;;;40.75;15.80;;;;;;;14.57;77.28;102053.31;5031479;28;20044;-48
2021/10/27 13:06:18;;;;;;;32.67;15.52;;;;;;;14.63;76.62;102049.03;5025529;28;20037;-46
2021/10/27 13:14:14;;;;;;;31.90;15.90;;;;;;;14.48;77.06;102065.16;5024500;28;20518;-49
2021/10/27 13:19:25;;;;;;;32.72;14.13;;;;;;;14.37;77.35;102073.69;5034351;28;20052;-48
2021/10/27 13:29:53;;;;;;;29.42;13.68;;;;;;;14.37;76.98;102066.41;5014184;28;20092;-55
2021/10/27 13:32:21;;;;;;;28.00;11.38;;;;;;;14.48;76.23;102059.75;5027008;28;20029;-47
2021/10/27 13:34:47;;;;;;;25.90;12.27;;;;;;;14.48;76.31;102054.34;5014644;28;20018;-47
2021/10/27 13:37:12;;;;;;;29.08;12.57;;;;;;;14.47;76.48;102053.50;5019920;28;20045;-49
2021/10/27 13:39:38;;;;;;;27.80;11.95;;;;;;;14.44;76.04;102044.88;5015087;28;20030;-49
2021/10/27 13:42:20;;;;;;;24.67;11.40;;;;;;;14.49;76.66;102056.03;5016276;28;20026;-47
2021/10/27 13:47:44;;;;;;;28.80;13.18;;;;;;;14.64;76.76;102053.41;5024874;28;20150;-49
2021/10/27 14:06:20;;;;;;;19.33;9.35;;;;;;;14.46;74.79;102040.16;5014040;28;20068;-47
2021/10/27 14:08:50;;;;;;;24.70;9.77;;;;;;;14.51;74.51;102054.00;5025616;28;20145;-49
2021/10/27 14:11:27;;;;;;;26.05;10.57;;;;;;;14.81;73.45;102037.91;5031657;28;20025;-46
2021/10/27 14:13:59;;;;;;;23.67;9.75;;;;;;;15.03;72.38;102030.78;5031094;28;20511;-50
2021/10/27 15:22:01;;;;;;;26.25;11.25;;;;;;;13.67;76.60;102004.97;5022389;28;20033;-48
2021/10/27 15:32:32;;;;;;;22.42;12.18;;;;;;;13.44;77.19;102014.84;5013539;28;20046;-47
2021/10/27 15:50:27;;;;;;;27.50;12.82;;;;;;;13.27;78.02;102016.69;5011575;28;20046;-46
2021/10/27 15:51:06;;;;;;;29.42;12.45;;;;;;;13.22;77.88;102019.03;5018197;28;20040;-49
2021/10/27 15:53:31;;;;;;;29.42;13.07;;;;;;;13.18;78.14;102018.53;5029134;28;20132;-49
2021/10/27 15:55:56;;;;;;;26.27;12.35;;;;;;;13.14;78.19;102019.91;5013834;28;20243;-48
2021/10/27 15:58:22;;;;;;;27.30;13.65;;;;;;;13.07;78.35;102017.03;5011487;28;20021;-44
2021/10/27 16:00:48;;;;;;;29.48;14.38;;;;;;;13.06;78.45;102015.34;5021878;28;20030;-45
2021/10/27 16:03:15;;;;;;;30.27;13.82;;;;;;;13.08;78.52;102017.88;5019293;28;20416;-50